Terminal Aerodrome Forecast
Issued by NWS

Home | Current Version | Previous Version | Graphics & Text | Print | Product List | Glossary On
Versions: 1 2 3 4 5 6 7 8 9 10 11 12 13 14 15 16
000
FTUS43 KIWX 301004 AAB
TAFSBN
TAF AMD
KSBN 301004Z 3010/3106 VRB03KT 1SM BR OVC004
      TEMPO 3010/3012 1/4SM FG VV002
     FM301300 VRB02KT 3SM BR BKN006
     FM301600 25006KT P6SM BKN020
     FM302000 27006KT P6SM SCT025 BKN040
     FM310400 VRB02KT 5SM BR SCT025=

USA.gov is the U.S. government's official web portal to all federal, state and local government web resources and services.